Time;durP1;ratioP1;P1;durP2;ratioP2;P2;SDS_P1;SDS_P2;PMS_P1;PMS_P2;Temp;Humidity;BMP_temperature;BMP_pressure;BME280_temperature;BME280_humidity;BME280_pressure;Samples;Min_cycle;Max_cycle;Signal;HPM_P1;HPM_P2
2022/10/27 00:01:00;;;;;;;8.07;3.63;;;;;;;;;;4878151;29;20083;-63
2022/10/27 00:03:27;;;;;;;10.07;3.30;;;;;;;;;;4877835;29;20033;-63
2022/10/27 00:06:01;;;;;;;11.02;3.67;;;;;;;;;;4878268;29;20045;-63
2022/10/27 00:08:28;;;;;;;13.77;3.60;;;;;;;;;;4878158;29;20057;-63
2022/10/27 00:10:55;;;;;;;9.70;3.50;;;;;;;;;;4878167;29;20108;-63
2022/10/27 00:13:22;;;;;;;18.02;3.55;;;;;;;;;;4877580;29;20064;-64
2022/10/27 00:16:02;;;;;;;7.05;3.22;;;;;;;;;;4876910;29;20104;-64
2022/10/27 00:18:29;;;;;;;9.85;3.38;;;;;;;;;;4878037;29;20078;-64
2022/10/27 00:21:02;;;;;;;7.07;3.00;;;;;;;;;;4878099;29;20075;-64
2022/10/27 00:23:29;;;;;;;4.63;2.87;;;;;;;;;;4876708;29;20399;-64
2022/10/27 00:25:56;;;;;;;8.48;2.63;;;;;;;;;;4878038;29;20344;-65
2022/10/27 00:28:22;;;;;;;9.98;3.65;;;;;;;;;;4878043;29;20109;-64
2022/10/27 00:30:57;;;;;;;8.40;2.75;;;;;;;;;;4878037;29;20329;-62
2022/10/27 00:33:24;;;;;;;;;;;;;;;;;;4861197;29;20061;-62
2022/10/27 00:35:50;;;;;;;11.73;3.03;;;;;;;;;;4878020;29;20385;-63
2022/10/27 00:38:16;;;;;;;5.93;3.17;;;;;;;;;;4877882;29;20093;-62
2022/10/27 00:40:43;;;;;;;13.15;3.17;;;;;;;;;;4876592;29;20080;-63
2022/10/27 00:43:22;;;;;;;11.25;3.10;;;;;;;;;;4877254;29;20490;-62
2022/10/27 00:45:49;;;;;;;10.60;3.10;;;;;;;;;;4878189;29;20221;-63
2022/10/27 00:48:15;;;;;;;7.63;3.80;;;;;;;;;;4881405;29;20041;-63
2022/10/27 00:50:41;;;;;;;8.45;3.10;;;;;;;;;;4880182;29;20045;-63
2022/10/27 00:53:08;;;;;;;7.88;3.17;;;;;;;;;;4880719;29;20053;-63
2022/10/27 00:55:37;;;;;;;7.47;3.15;;;;;;;;;;4880946;29;20140;-62
2022/10/27 00:58:04;;;;;;;9.25;3.25;;;;;;;;;;4881185;29;20097;-63
2022/10/27 01:00:31;;;;;;;6.60;3.83;;;;;;;;;;4881094;29;20045;-63
2022/10/27 01:02:58;;;;;;;6.45;3.10;;;;;;;;;;4879253;29;20498;-62
2022/10/27 01:05:25;;;;;;;8.00;3.30;;;;;;;;;;4879890;29;20049;-62
2022/10/27 01:07:54;;;;;;;9.88;3.38;;;;;;;;;;4881070;29;20096;-62
2022/10/27 01:10:21;;;;;;;9.23;3.53;;;;;;;;;;4881061;29;20498;-64
2022/10/27 01:12:48;;;;;;;5.05;3.22;;;;;;;;;;4880330;29;20514;-63
2022/10/27 01:15:15;;;;;;;9.50;3.63;;;;;;;;;;4864532;29;20052;-63
2022/10/27 01:17:48;;;;;;;7.93;4.22;;;;;;;;;;4879565;29;20049;-63
2022/10/27 01:20:14;;;;;;;9.13;3.30;;;;;;;;;;4880886;29;20053;-63
2022/10/27 01:22:45;;;;;;;9.98;3.47;;;;;;;;;;4880312;29;20045;-64
2022/10/27 01:25:14;;;;;;;6.32;2.92;;;;;;;;;;4880799;29;20097;-63
2022/10/27 01:27:41;;;;;;;10.20;2.80;;;;;;;;;;4880849;29;20093;-63
2022/10/27 01:30:09;;;;;;;4.68;3.05;;;;;;;;;;4879656;29;20113;-63
2022/10/27 01:32:55;;;;;;;7.72;2.72;;;;;;;;;;4880223;29;20064;-64
2022/10/27 01:35:29;;;;;;;5.70;3.10;;;;;;;;;;4880801;29;20113;-64
2022/10/27 01:37:55;;;;;;;9.32;2.83;;;;;;;;;;4879282;29;20112;-63
2022/10/27 01:40:25;;;;;;;10.23;2.67;;;;;;;;;;4880644;29;20101;-64
2022/10/27 01:43:06;;;;;;;6.10;3.03;;;;;;;;;;4880034;29;20451;-64
2022/10/27 01:45:34;;;;;;;7.88;2.67;;;;;;;;;;4879267;29;20045;-64
2022/10/27 01:48:00;;;;;;;6.43;3.40;;;;;;;;;;4879234;29;20574;-64
2022/10/27 01:50:28;;;;;;;8.18;2.88;;;;;;;;;;4880346;29;20045;-64
2022/10/27 01:53:15;;;;;;;9.82;3.40;;;;;;;;;;4879286;29;20080;-63
2022/10/27 01:55:57;;;;;;;3.08;2.58;;;;;;;;;;4880763;29;20109;-64
2022/10/27 01:58:46;;;;;;;11.52;2.95;;;;;;;;;;4879703;29;20486;-63
2022/10/27 02:01:31;;;;;;;8.02;3.00;;;;;;;;;;4880790;29;20049;-62
2022/10/27 02:03:57;;;;;;;6.72;2.65;;;;;;;;;;4880621;29;20409;-63
2022/10/27 02:06:30;;;;;;;7.22;3.08;;;;;;;;;;4881158;29;20045;-62
2022/10/27 02:09:07;;;;;;;10.93;5.05;;;;;;;;;;4886315;29;20074;-63
2022/10/27 02:11:36;;;;;;;3.95;2.75;;;;;;;;;;4883291;29;20045;-63
2022/10/27 02:14:03;;;;;;;6.00;2.65;;;;;;;;;;4881402;29;20093;-62
2022/10/27 02:16:31;;;;;;;9.43;2.97;;;;;;;;;;4881118;29;20045;-63
2022/10/27 02:19:02;;;;;;;8.88;3.05;;;;;;;;;;4879705;29;20045;-62
2022/10/27 02:21:30;;;;;;;3.88;3.13;;;;;;;;;;4881158;29;20077;-62
2022/10/27 02:23:56;;;;;;;6.70;2.88;;;;;;;;;;4880578;29;20045;-62
2022/10/27 02:26:27;;;;;;;5.30;2.80;;;;;;;;;;4882626;29;20041;-62
2022/10/27 02:28:55;;;;;;;8.23;3.22;;;;;;;;;;4880589;29;20049;-62
2022/10/27 02:31:26;;;;;;;5.95;2.88;;;;;;;;;;4863032;29;20499;-62
2022/10/27 02:33:52;;;;;;;4.90;2.80;;;;;;;;;;4879271;29;20053;-62
2022/10/27 02:36:19;;;;;;;7.97;3.05;;;;;;;;;;4879614;29;20114;-62
2022/10/27 02:38:45;;;;;;;7.45;3.60;;;;;;;;;;4878330;29;20049;-62
2022/10/27 02:41:11;;;;;;;6.25;2.63;;;;;;;;;;4879512;29;20101;-62
2022/10/27 02:43:38;;;;;;;6.53;2.63;;;;;;;;;;4879025;29;20045;-62
2022/10/27 02:46:04;;;;;;;5.57;3.15;;;;;;;;;;4879996;29;20045;-62
2022/10/27 02:48:31;;;;;;;6.55;2.75;;;;;;;;;;4879855;29;20105;-62
2022/10/27 02:50:57;;;;;;;5.75;2.72;;;;;;;;;;4880390;29;20052;-62
2022/10/27 02:53:24;;;;;;;5.95;3.00;;;;;;;;;;4877394;29;20636;-62
2022/10/27 02:55:50;;;;;;;11.27;3.40;;;;;;;;;;4879336;29;20044;-62
2022/10/27 02:58:17;;;;;;;6.78;2.70;;;;;;;;;;4878024;29;20100;-62
2022/10/27 03:00:43;;;;;;;9.77;3.67;;;;;;;;;;4879147;29;20108;-63
2022/10/27 03:03:09;;;;;;;6.30;2.95;;;;;;;;;;4877190;29;20045;-62
2022/10/27 03:05:36;;;;;;;5.13;2.60;;;;;;;;;;4879229;29;20083;-63
2022/10/27 03:08:02;;;;;;;7.18;2.63;;;;;;;;;;4879329;29;20428;-62
2022/10/27 03:10:29;;;;;;;6.60;3.42;;;;;;;;;;4877922;29;20112;-62
2022/10/27 03:12:55;;;;;;;5.13;2.92;;;;;;;;;;4862388;29;20061;-62
2022/10/27 03:15:22;;;;;;;3.58;2.20;;;;;;;;;;4878597;29;20116;-61
2022/10/27 03:17:48;;;;;;;5.28;2.15;;;;;;;;;;4878145;29;20049;-61
2022/10/27 03:20:15;;;;;;;5.75;3.00;;;;;;;;;;4878828;29;20041;-63
2022/10/27 03:22:41;;;;;;;5.95;3.15;;;;;;;;;;4862152;29;20045;-62
2022/10/27 03:25:10;;;;;;;6.35;3.40;;;;;;;;;;4878646;29;20041;-63
2022/10/27 03:27:40;;;;;;;5.82;2.92;;;;;;;;;;4879510;29;20037;-61
2022/10/27 03:30:08;;;;;;;12.88;2.58;;;;;;;;;;4863912;29;20064;-61
2022/10/27 03:32:34;;;;;;;7.72;2.85;;;;;;;;;;4862916;29;20168;-61
2022/10/27 03:35:01;;;;;;;6.68;3.10;;;;;;;;;;4880991;29;20045;-61
2022/10/27 03:37:27;;;;;;;6.13;2.67;;;;;;;;;;4882163;29;20045;-63
2022/10/27 03:39:54;;;;;;;6.75;2.65;;;;;;;;;;4882282;29;20055;-61
2022/10/27 03:42:20;;;;;;;6.53;2.72;;;;;;;;;;4881382;29;20041;-61
2022/10/27 03:44:46;;;;;;;6.60;2.75;;;;;;;;;;4883045;29;20109;-61
2022/10/27 03:47:13;;;;;;;6.35;2.75;;;;;;;;;;4884488;29;20121;-61
2022/10/27 03:49:39;;;;;;;9.18;2.85;;;;;;;;;;4883379;29;20049;-60
2022/10/27 03:52:05;;;;;;;4.82;2.20;;;;;;;;;;4865484;29;20056;-62
2022/10/27 03:54:32;;;;;;;9.75;2.92;;;;;;;;;;4880760;29;20049;-60
2022/10/27 03:56:58;;;;;;;10.15;3.13;;;;;;;;;;4877176;29;20467;-61
2022/10/27 03:59:25;;;;;;;8.50;3.47;;;;;;;;;;4877264;29;20051;-61
2022/10/27 04:01:51;;;;;;;7.82;2.50;;;;;;;;;;5246720;23;20045;-64
2022/10/27 04:04:18;;;;;;;7.30;2.80;;;;;;;;;;4877265;29;20045;-63
2022/10/27 04:06:44;;;;;;;9.65;3.60;;;;;;;;;;4878451;29;20487;-64
2022/10/27 04:09:11;;;;;;;6.95;3.03;;;;;;;;;;4877053;29;20049;-64
2022/10/27 04:11:37;;;;;;;7.57;2.75;;;;;;;;;;4876386;29;20121;-64
2022/10/27 04:14:04;;;;;;;10.98;3.10;;;;;;;;;;4876911;29;20053;-64
2022/10/27 04:16:30;;;;;;;9.60;4.10;;;;;;;;;;4861652;29;20347;-63
2022/10/27 04:18:56;;;;;;;6.65;3.13;;;;;;;;;;4861693;29;20053;-64
2022/10/27 04:21:23;;;;;;;9.00;3.08;;;;;;;;;;4879551;29;20052;-64
2022/10/27 04:23:49;;;;;;;7.28;2.90;;;;;;;;;;4880617;29;20105;-64
2022/10/27 04:26:16;;;;;;;8.82;3.03;;;;;;;;;;4881877;29;20045;-64
2022/10/27 04:28:42;;;;;;;6.93;3.15;;;;;;;;;;4880839;29;20647;-64
2022/10/27 04:31:09;;;;;;;5.32;3.33;;;;;;;;;;4881956;29;20127;-64
2022/10/27 04:33:35;;;;;;;11.00;3.60;;;;;;;;;;4879984;29;20049;-65
2022/10/27 04:36:02;;;;;;;8.55;3.13;;;;;;;;;;4880810;29;20053;-64
2022/10/27 04:38:28;;;;;;;10.27;3.22;;;;;;;;;;4881707;29;20041;-65
2022/10/27 04:41:00;;;;;;;11.32;2.80;;;;;;;;;;4881551;29;20049;-64
2022/10/27 04:43:27;;;;;;;7.38;3.10;;;;;;;;;;4879927;29;20053;-63
2022/10/27 04:45:54;;;;;;;6.35;2.70;;;;;;;;;;4864983;29;20060;-63
2022/10/27 04:48:20;;;;;;;6.80;2.80;;;;;;;;;;4882017;29;20069;-62
2022/10/27 04:50:46;;;;;;;5.72;2.47;;;;;;;;;;4881456;29;20045;-60
2022/10/27 04:53:13;;;;;;;6.95;2.70;;;;;;;;;;4880784;29;20100;-60
2022/10/27 04:55:39;;;;;;;6.38;3.80;;;;;;;;;;4880131;29;20398;-63
2022/10/27 04:58:06;;;;;;;5.63;3.03;;;;;;;;;;4881532;29;20045;-63
2022/10/27 05:00:35;;;;;;;7.63;2.80;;;;;;;;;;4881066;29;20076;-61
2022/10/27 05:03:01;;;;;;;7.97;3.35;;;;;;;;;;4880543;29;20297;-61
2022/10/27 05:05:28;;;;;;;5.43;3.08;;;;;;;;;;4880003;29;20446;-62
2022/10/27 05:07:55;;;;;;;14.25;3.53;;;;;;;;;;4881111;29;20076;-62
2022/10/27 05:10:22;;;;;;;6.78;3.20;;;;;;;;;;4879800;29;20093;-62
2022/10/27 05:12:48;;;;;;;6.28;2.42;;;;;;;;;;4880723;29;20109;-62
2022/10/27 05:15:15;;;;;;;5.95;3.20;;;;;;;;;;4881639;29;20049;-62
2022/10/27 05:17:42;;;;;;;9.40;3.40;;;;;;;;;;4883423;29;20049;-63
2022/10/27 05:20:08;;;;;;;5.80;2.95;;;;;;;;;;4882528;29;20375;-62
2022/10/27 05:22:36;;;;;;;7.28;2.60;;;;;;;;;;4882351;29;20073;-62
2022/10/27 05:25:02;;;;;;;6.78;3.10;;;;;;;;;;4882366;29;20463;-62
2022/10/27 05:27:30;;;;;;;6.50;3.38;;;;;;;;;;4883328;29;20041;-62
2022/10/27 05:29:56;;;;;;;6.45;3.25;;;;;;;;;;4880990;29;20045;-63
2022/10/27 05:32:23;;;;;;;8.93;3.70;;;;;;;;;;4878769;29;20463;-62
2022/10/27 05:34:49;;;;;;;7.82;4.18;;;;;;;;;;4880912;29;20056;-61
2022/10/27 05:37:16;;;;;;;9.40;3.95;;;;;;;;;;4879575;29;20045;-61
2022/10/27 05:39:42;;;;;;;8.65;3.55;;;;;;;;;;4880800;29;20080;-62
2022/10/27 05:42:08;;;;;;;15.90;4.00;;;;;;;;;;4879771;29;20110;-64
2022/10/27 05:44:35;;;;;;;11.63;4.00;;;;;;;;;;4887104;29;20052;-62
2022/10/27 05:47:01;;;;;;;9.68;4.28;;;;;;;;;;4888014;29;20044;-62
2022/10/27 05:49:28;;;;;;;10.15;4.35;;;;;;;;;;4888520;29;20089;-62
2022/10/27 05:51:54;;;;;;;9.52;3.53;;;;;;;;;;4886599;29;20078;-62
2022/10/27 05:54:20;;;;;;;12.32;3.78;;;;;;;;;;4885040;29;20085;-60
2022/10/27 05:56:48;;;;;;;6.35;3.03;;;;;;;;;;4880320;29;20105;-62
2022/10/27 05:59:15;;;;;;;6.53;3.40;;;;;;;;;;4880968;29;20049;-62
2022/10/27 06:01:42;;;;;;;12.57;3.72;;;;;;;;;;4880059;29;20048;-62
2022/10/27 06:04:08;;;;;;;7.50;3.38;;;;;;;;;;4879780;29;20417;-60
2022/10/27 06:06:34;;;;;;;11.00;3.50;;;;;;;;;;4880690;29;20052;-60
2022/10/27 06:09:01;;;;;;;5.63;3.58;;;;;;;;;;4880356;29;20037;-62
2022/10/27 06:11:27;;;;;;;8.57;3.65;;;;;;;;;;4880153;29;20049;-63
2022/10/27 06:13:54;;;;;;;12.18;4.78;;;;;;;;;;4879578;29;20037;-62
2022/10/27 06:16:21;;;;;;;10.23;3.78;;;;;;;;;;4878655;29;20053;-62
2022/10/27 06:18:47;;;;;;;14.80;4.40;;;;;;;;;;4879927;29;20041;-62
2022/10/27 06:21:14;;;;;;;9.35;3.78;;;;;;;;;;4878687;29;20122;-64
2022/10/27 06:23:40;;;;;;;12.25;5.22;;;;;;;;;;4878108;29;20045;-63
2022/10/27 06:26:08;;;;;;;12.95;4.40;;;;;;;;;;4878610;29;20094;-62
2022/10/27 06:28:35;;;;;;;12.30;3.92;;;;;;;;;;4878936;29;20045;-62
2022/10/27 06:31:01;;;;;;;8.50;3.67;;;;;;;;;;4879807;29;20053;-62
2022/10/27 06:33:27;;;;;;;14.73;4.07;;;;;;;;;;4879210;29;20550;-63
2022/10/27 06:35:54;;;;;;;7.63;3.75;;;;;;;;;;4879897;29;20507;-63
2022/10/27 06:38:20;;;;;;;7.65;4.05;;;;;;;;;;4878794;29;20088;-62
2022/10/27 06:40:47;;;;;;;8.35;3.95;;;;;;;;;;4878791;29;20073;-62
2022/10/27 06:43:13;;;;;;;8.27;3.30;;;;;;;;;;4878681;29;20049;-63
2022/10/27 06:45:44;;;;;;;9.45;4.20;;;;;;;;;;4878561;29;20069;-62
2022/10/27 06:48:11;;;;;;;11.70;4.30;;;;;;;;;;4880092;29;20045;-63
2022/10/27 06:50:37;;;;;;;11.68;4.28;;;;;;;;;;4878861;29;20112;-63
2022/10/27 06:53:04;;;;;;;10.98;4.03;;;;;;;;;;4879227;29;20049;-63
2022/10/27 06:55:30;;;;;;;7.47;4.00;;;;;;;;;;4879854;29;20045;-62
2022/10/27 06:57:57;;;;;;;10.45;4.90;;;;;;;;;;4878860;29;20048;-62
2022/10/27 07:00:23;;;;;;;11.00;4.20;;;;;;;;;;4878337;29;20049;-62
2022/10/27 07:02:50;;;;;;;6.22;4.10;;;;;;;;;;4878316;29;20430;-62
2022/10/27 07:05:16;;;;;;;7.97;4.30;;;;;;;;;;4880347;29;20060;-64
2022/10/27 07:07:47;;;;;;;9.60;4.10;;;;;;;;;;4880179;29;20081;-63
2022/10/27 07:10:14;;;;;;;8.80;4.70;;;;;;;;;;4881049;29;20063;-62
2022/10/27 07:12:53;;;;;;;13.77;5.43;;;;;;;;;;4880521;29;20045;-62
2022/10/27 07:15:21;;;;;;;11.52;5.60;;;;;;;;;;4879943;29;20049;-63
2022/10/27 07:17:47;;;;;;;13.38;4.70;;;;;;;;;;4879710;29;20053;-63
2022/10/27 07:20:14;;;;;;;10.77;5.28;;;;;;;;;;4879260;29;20043;-63
2022/10/27 07:22:40;;;;;;;9.95;4.93;;;;;;;;;;4879901;29;20052;-63
2022/10/27 07:25:07;;;;;;;11.57;4.78;;;;;;;;;;4879056;29;20045;-64
2022/10/27 07:27:34;;;;;;;9.98;4.35;;;;;;;;;;4879057;29;20558;-64
2022/10/27 07:30:00;;;;;;;8.85;4.43;;;;;;;;;;4879646;29;20108;-62
2022/10/27 07:32:27;;;;;;;9.82;4.13;;;;;;;;;;4878380;29;20387;-63
2022/10/27 07:34:53;;;;;;;9.98;5.22;;;;;;;;;;4877570;29;20100;-63
2022/10/27 07:37:19;;;;;;;9.73;4.55;;;;;;;;;;4862501;29;20053;-63
2022/10/27 07:39:46;;;;;;;10.27;4.00;;;;;;;;;;4877333;29;20133;-64
2022/10/27 07:42:12;;;;;;;10.50;4.20;;;;;;;;;;4878683;29;20108;-63
2022/10/27 07:44:39;;;;;;;10.70;4.32;;;;;;;;;;4877451;29;20049;-63
2022/10/27 07:47:05;;;;;;;10.65;4.15;;;;;;;;;;4877489;29;20045;-63
2022/10/27 07:49:32;;;;;;;10.88;4.72;;;;;;;;;;4878816;29;20120;-63
2022/10/27 07:51:58;;;;;;;9.52;4.30;;;;;;;;;;4878061;29;20045;-63
2022/10/27 07:54:25;;;;;;;11.07;4.55;;;;;;;;;;4878649;29;20078;-64
2022/10/27 07:56:51;;;;;;;10.50;4.22;;;;;;;;;;4883476;29;20060;-62
2022/10/27 07:59:17;;;;;;;11.75;5.13;;;;;;;;;;4891157;29;20045;-63
2022/10/27 08:01:44;;;;;;;9.93;4.40;;;;;;;;;;4881990;29;20494;-63
2022/10/27 08:04:10;;;;;;;8.30;4.43;;;;;;;;;;4878522;29;20041;-65
2022/10/27 08:06:37;;;;;;;7.68;3.95;;;;;;;;;;4878276;29;20116;-64
2022/10/27 08:09:03;;;;;;;10.73;5.00;;;;;;;;;;4877219;29;20112;-64
2022/10/27 08:11:30;;;;;;;10.85;5.95;;;;;;;;;;4878394;29;20410;-63
2022/10/27 08:13:56;;;;;;;7.85;4.20;;;;;;;;;;4876881;29;20049;-63
2022/10/27 08:16:23;;;;;;;6.88;4.30;;;;;;;;;;4877337;29;20053;-63
2022/10/27 08:18:49;;;;;;;9.68;4.35;;;;;;;;;;4877298;29;20418;-63
2022/10/27 08:21:15;;;;;;;15.85;4.40;;;;;;;;;;4876987;29;20045;-63
2022/10/27 08:23:42;;;;;;;9.50;4.40;;;;;;;;;;4877588;29;20041;-63
2022/10/27 08:26:08;;;;;;;7.03;4.55;;;;;;;;;;4876789;29;20053;-64
2022/10/27 08:28:35;;;;;;;7.03;4.25;;;;;;;;;;4878084;29;20049;-64
2022/10/27 08:31:01;;;;;;;9.95;4.30;;;;;;;;;;4877128;29;20057;-64
2022/10/27 08:33:27;;;;;;;12.13;4.68;;;;;;;;;;4877642;29;20041;-64
2022/10/27 08:35:54;;;;;;;10.25;4.38;;;;;;;;;;4877691;29;20112;-64
2022/10/27 08:38:20;;;;;;;13.52;5.18;;;;;;;;;;4876733;29;20124;-65
2022/10/27 08:41:06;;;;;;;6.95;4.28;;;;;;;;;;4876759;29;20064;-64
2022/10/27 08:43:42;;;;;;;11.05;5.03;;;;;;;;;;4877585;29;20041;-64
2022/10/27 08:46:20;;;;;;;10.68;4.53;;;;;;;;;;4878297;29;20045;-65
2022/10/27 08:48:48;;;;;;;8.63;4.90;;;;;;;;;;4878078;29;20048;-65
2022/10/27 08:51:17;;;;;;;10.30;4.40;;;;;;;;;;4876847;29;20057;-63
2022/10/27 08:53:45;;;;;;;12.13;4.70;;;;;;;;;;4877601;29;20049;-64
2022/10/27 08:56:11;;;;;;;10.68;4.38;;;;;;;;;;4876907;29;20108;-63
2022/10/27 08:58:39;;;;;;;16.08;5.45;;;;;;;;;;4876889;29;20499;-67
2022/10/27 09:01:18;;;;;;;14.63;5.13;;;;;;;;;;4876810;29;20060;-65
2022/10/27 09:04:04;;;;;;;13.18;4.93;;;;;;;;;;4877887;29;20056;-64
2022/10/27 09:06:37;;;;;;;9.13;5.35;;;;;;;;;;4878211;29;20518;-64
2022/10/27 09:09:25;;;;;;;8.07;5.43;;;;;;;;;;4881717;29;20049;-64
2022/10/27 09:12:14;;;;;;;10.70;5.00;;;;;;;;;;4879764;29;20101;-64
2022/10/27 09:14:59;;;;;;;15.95;6.05;;;;;;;;;;4881505;29;20060;-63
2022/10/27 09:17:27;;;;;;;12.02;6.13;;;;;;;;;;4881133;29;20495;-64
2022/10/27 09:20:04;;;;;;;15.40;6.35;;;;;;;;;;4881196;29;20517;-64
2022/10/27 09:22:32;;;;;;;12.35;5.78;;;;;;;;;;4880606;29;20101;-62
2022/10/27 09:25:01;;;;;;;10.65;5.95;;;;;;;;;;4881024;29;20459;-65
2022/10/27 09:27:28;;;;;;;13.10;5.65;;;;;;;;;;4879908;29;20105;-63
2022/10/27 09:29:57;;;;;;;10.85;6.22;;;;;;;;;;4879809;29;20045;-64
2022/10/27 09:32:30;;;;;;;10.93;6.60;;;;;;;;;;4880230;29;20076;-64
2022/10/27 09:35:01;;;;;;;12.20;6.60;;;;;;;;;;4879777;29;20078;-63
2022/10/27 09:37:28;;;;;;;13.27;6.10;;;;;;;;;;4879565;29;20053;-63
2022/10/27 09:39:56;;;;;;;9.48;6.30;;;;;;;;;;4880926;29;20045;-64
2022/10/27 09:42:23;;;;;;;9.70;5.65;;;;;;;;;;4880117;29;20045;-63
2022/10/27 09:44:53;;;;;;;10.95;6.45;;;;;;;;;;4879667;29;20049;-63
2022/10/27 09:47:21;;;;;;;10.27;5.38;;;;;;;;;;4880704;29;20047;-62
2022/10/27 09:49:48;;;;;;;14.13;5.25;;;;;;;;;;4880535;29;20553;-63
2022/10/27 09:52:18;;;;;;;12.43;6.00;;;;;;;;;;4878767;29;20076;-63
2022/10/27 09:54:55;;;;;;;9.93;5.20;;;;;;;;;;4880753;29;20105;-63
2022/10/27 09:57:30;;;;;;;13.55;5.18;;;;;;;;;;4879197;29;20053;-64
2022/10/27 10:00:01;;;;;;;7.80;4.63;;;;;;;;;;4879524;29;20057;-64
2022/10/27 10:02:38;;;;;;;7.43;4.20;;;;;;;;;;4880054;29;20425;-63
2022/10/27 10:05:19;;;;;;;8.43;4.60;;;;;;;;;;4885179;29;20040;-63
2022/10/27 10:07:46;;;;;;;8.48;4.68;;;;;;;;;;4883317;29;20057;-64
2022/10/27 10:10:15;;;;;;;10.40;4.22;;;;;;;;;;4882528;29;20048;-63
2022/10/27 10:12:41;;;;;;;10.95;4.22;;;;;;;;;;4882076;29;20048;-63
2022/10/27 10:15:11;;;;;;;8.82;4.40;;;;;;;;;;4883120;29;20079;-65
2022/10/27 10:17:41;;;;;;;6.75;4.25;;;;;;;;;;4880859;29;20053;-64
2022/10/27 10:20:24;;;;;;;6.25;4.18;;;;;;;;;;4879360;29;20049;-64
2022/10/27 10:22:50;;;;;;;8.35;4.28;;;;;;;;;;4878966;29;20060;-66
2022/10/27 10:25:26;;;;;;;11.02;4.05;;;;;;;;;;4880034;29;20048;-64
2022/10/27 10:28:00;;;;;;;9.57;4.20;;;;;;;;;;4880238;29;20041;-63
2022/10/27 10:30:26;;;;;;;10.13;3.95;;;;;;;;;;4880020;29;20226;-64
2022/10/27 10:32:54;;;;;;;8.02;3.40;;;;;;;;;;4879198;29;20044;-65
2022/10/27 10:35:39;;;;;;;8.32;3.70;;;;;;;;;;4880241;29;20074;-64
2022/10/27 10:38:23;;;;;;;6.97;3.60;;;;;;;;;;4880115;29;20490;-64
2022/10/27 10:41:00;;;;;;;6.25;3.38;;;;;;;;;;4878645;29;20045;-64
2022/10/27 10:43:27;;;;;;;6.65;3.33;;;;;;;;;;4879262;29;20045;-62
2022/10/27 10:45:53;;;;;;;6.35;3.38;;;;;;;;;;4879529;29;20041;-63
2022/10/27 10:48:27;;;;;;;6.63;3.10;;;;;;;;;;4879768;29;20443;-64
2022/10/27 10:50:53;;;;;;;;;;;;;;;;;;4880098;29;20056;-64
2022/10/27 10:53:28;;;;;;;7.72;3.25;;;;;;;;;;4879074;29;20392;-64
2022/10/27 10:56:00;;;;;;;6.43;3.45;;;;;;;;;;4878228;29;20081;-64
2022/10/27 10:58:28;;;;;;;9.38;3.38;;;;;;;;;;4879679;29;20065;-64
2022/10/27 11:00:59;;;;;;;6.45;3.67;;;;;;;;;;4879356;29;20041;-66
2022/10/27 11:03:28;;;;;;;5.07;3.03;;;;;;;;;;4878577;29;20041;-64
2022/10/27 11:05:57;;;;;;;9.32;3.55;;;;;;;;;;4878263;29;20041;-64
2022/10/27 11:08:33;;;;;;;8.18;4.03;;;;;;;;;;4879306;29;20057;-63
2022/10/27 11:11:18;;;;;;;6.75;3.47;;;;;;;;;;4879629;29;20121;-64
2022/10/27 11:13:51;;;;;;;10.02;3.30;;;;;;;;;;4878746;29;20403;-65
2022/10/27 11:16:18;;;;;;;14.73;4.13;;;;;;;;;;4879143;29;20052;-65
2022/10/27 11:18:51;;;;;;;11.88;3.70;;;;;;;;;;4877810;29;20045;-65
2022/10/27 11:21:25;;;;;;;6.32;3.20;;;;;;;;;;4877700;29;20053;-62
2022/10/27 11:23:55;;;;;;;7.00;3.55;;;;;;;;;;4877528;29;20093;-65
2022/10/27 11:26:26;;;;;;;7.78;3.80;;;;;;;;;;4878904;29;20100;-65
2022/10/27 11:28:58;;;;;;;6.32;3.38;;;;;;;;;;4878922;29;20105;-64
2022/10/27 11:31:30;;;;;;;7.03;3.20;;;;;;;;;;4878285;29;20045;-63
2022/10/27 11:34:02;;;;;;;10.32;3.50;;;;;;;;;;4878218;29;20049;-64
2022/10/27 11:36:32;;;;;;;7.72;4.07;;;;;;;;;;4878848;29;20054;-63
2022/10/27 11:39:04;;;;;;;5.93;3.30;;;;;;;;;;4878761;29;20502;-64
2022/10/27 11:41:45;;;;;;;8.13;3.25;;;;;;;;;;4878735;29;20502;-64
2022/10/27 11:44:14;;;;;;;10.05;3.47;;;;;;;;;;4879035;29;20049;-64
2022/10/27 11:46:44;;;;;;;9.90;3.35;;;;;;;;;;4878610;29;20406;-66
2022/10/27 11:49:28;;;;;;;11.05;4.00;;;;;;;;;;4878753;29;20676;-65
2022/10/27 11:51:54;;;;;;;;;;;;;;;;;;4877132;29;20513;-65
2022/10/27 11:54:21;;;;;;;6.88;3.00;;;;;;;;;;4878503;29;19952;-64
2022/10/27 11:56:47;;;;;;;10.52;3.15;;;;;;;;;;4878701;29;20052;-64
2022/10/27 11:59:20;;;;;;;4.68;2.78;;;;;;;;;;4878686;29;20052;-64
2022/10/27 12:01:47;;;;;;;;;;;;;;;;;;4877481;29;20113;-66
2022/10/27 12:04:19;;;;;;;6.70;3.03;;;;;;;;;;4879033;29;19924;-64
2022/10/27 12:07:06;;;;;;;8.90;3.38;;;;;;;;;;4878636;29;20060;-64
2022/10/27 12:09:39;;;;;;;7.93;3.78;;;;;;;;;;4878418;29;20049;-66
2022/10/27 12:12:10;;;;;;;5.35;2.90;;;;;;;;;;4877808;29;20053;-64
2022/10/27 12:14:45;;;;;;;9.77;2.83;;;;;;;;;;4878720;29;20056;-64
2022/10/27 12:17:14;;;;;;;10.70;3.55;;;;;;;;;;4878039;29;20475;-64
2022/10/27 12:19:43;;;;;;;9.35;2.90;;;;;;;;;;4878338;29;20052;-65
2022/10/27 12:22:19;;;;;;;8.20;2.85;;;;;;;;;;4877672;29;20037;-65
2022/10/27 12:24:57;;;;;;;9.73;3.28;;;;;;;;;;4877164;29;20053;-64
2022/10/27 12:27:29;;;;;;;8.27;2.83;;;;;;;;;;4877147;29;20049;-63
2022/10/27 12:29:58;;;;;;;8.27;2.78;;;;;;;;;;4878336;29;20045;-65
2022/10/27 12:32:27;;;;;;;9.43;2.90;;;;;;;;;;4876363;29;20498;-64
2022/10/27 12:35:26;;;;;;;5.55;3.05;;;;;;;;;;4861638;29;20574;-63
2022/10/27 12:37:52;;;;;;;6.95;2.60;;;;;;;;;;4867069;29;20117;-65
2022/10/27 12:40:42;;;;;;;8.88;2.65;;;;;;;;;;4876971;29;20053;-64
2022/10/27 12:43:28;;;;;;;9.90;2.80;;;;;;;;;;4880061;29;20049;-64
2022/10/27 12:46:17;;;;;;;5.80;2.65;;;;;;;;;;4871889;29;20053;-64
2022/10/27 12:48:58;;;;;;;8.80;2.90;;;;;;;;;;4881897;29;20105;-65
2022/10/27 12:51:40;;;;;;;6.38;2.60;;;;;;;;;;4881848;29;20060;-64
2022/10/27 12:54:18;;;;;;;7.82;2.20;;;;;;;;;;4881594;29;20411;-65
2022/10/27 12:57:07;;;;;;;5.93;2.13;;;;;;;;;;4881732;29;20049;-64
2022/10/27 12:59:40;;;;;;;8.18;2.65;;;;;;;;;;4881583;29;20049;-64
2022/10/27 13:02:11;;;;;;;7.63;2.58;;;;;;;;;;4880798;29;20079;-64
2022/10/27 13:04:40;;;;;;;7.32;3.08;;;;;;;;;;4881589;29;20149;-64
2022/10/27 13:07:26;;;;;;;6.18;2.85;;;;;;;;;;4882054;29;20045;-64
2022/10/27 13:09:58;;;;;;;6.80;2.90;;;;;;;;;;4881649;29;20044;-64
2022/10/27 13:12:43;;;;;;;7.45;2.88;;;;;;;;;;4880864;29;20056;-64
2022/10/27 13:15:29;;;;;;;13.07;2.90;;;;;;;;;;4881699;29;20049;-64
2022/10/27 13:18:13;;;;;;;5.90;1.85;;;;;;;;;;4881569;29;20525;-63
2022/10/27 13:20:46;;;;;;;6.00;2.45;;;;;;;;;;4881939;29;20045;-64
2022/10/27 13:23:27;;;;;;;8.95;2.42;;;;;;;;;;4879794;29;20573;-64
2022/10/27 13:26:03;;;;;;;7.18;2.13;;;;;;;;;;4881559;29;20049;-64
2022/10/27 13:28:33;;;;;;;7.05;2.55;;;;;;;;;;4881188;29;20105;-63
2022/10/27 13:31:02;;;;;;;4.57;2.20;;;;;;;;;;4884097;29;20052;-64
2022/10/27 13:33:39;;;;;;;7.90;3.15;;;;;;;;;;4880779;29;20065;-64
2022/10/27 13:36:14;;;;;;;5.30;2.30;;;;;;;;;;4881067;29;20049;-65
2022/10/27 13:38:40;;;;;;;7.45;2.67;;;;;;;;;;4881370;29;20045;-64
2022/10/27 13:41:07;;;;;;;4.53;2.03;;;;;;;;;;4880257;29;20573;-65
2022/10/27 13:43:33;;;;;;;5.13;2.28;;;;;;;;;;4878943;29;20054;-65
2022/10/27 13:45:59;;;;;;;6.60;2.00;;;;;;;;;;4880909;29;20112;-65
2022/10/27 13:48:26;;;;;;;6.53;2.28;;;;;;;;;;4880868;29;20073;-62
2022/10/27 13:50:56;;;;;;;6.78;2.40;;;;;;;;;;4880716;29;20056;-63
2022/10/27 13:53:23;;;;;;;6.28;2.40;;;;;;;;;;4880604;29;20422;-63
2022/10/27 13:55:50;;;;;;;6.82;2.10;;;;;;;;;;4880991;29;20045;-63
2022/10/27 13:58:22;;;;;;;3.40;1.98;;;;;;;;;;4880929;29;20055;-63
2022/10/27 14:01:01;;;;;;;7.55;2.20;;;;;;;;;;4879205;29;20411;-64
2022/10/27 14:03:28;;;;;;;5.07;2.10;;;;;;;;;;4878654;29;20463;-64
2022/10/27 14:05:54;;;;;;;4.35;2.35;;;;;;;;;;4879263;29;20049;-64
2022/10/27 14:08:23;;;;;;;5.03;2.33;;;;;;;;;;4880421;29;20041;-64
2022/10/27 14:10:50;;;;;;;5.45;2.08;;;;;;;;;;4880698;29;20476;-64
2022/10/27 14:13:36;;;;;;;9.80;2.85;;;;;;;;;;4879614;29;20422;-64
2022/10/27 14:16:03;;;;;;;8.55;2.53;;;;;;;;;;4879856;29;20060;-64
2022/10/27 14:18:31;;;;;;;7.80;2.20;;;;;;;;;;4880290;29;20097;-64
2022/10/27 14:20:59;;;;;;;7.88;2.40;;;;;;;;;;4878991;29;20061;-64
2022/10/27 14:23:26;;;;;;;6.15;2.50;;;;;;;;;;4879704;29;20045;-64
2022/10/27 14:25:52;;;;;;;7.22;2.65;;;;;;;;;;4879957;29;20041;-65
2022/10/27 14:28:24;;;;;;;10.57;2.60;;;;;;;;;;4880071;29;20045;-65
2022/10/27 14:31:12;;;;;;;4.88;2.30;;;;;;;;;;4879963;29;20045;-65
2022/10/27 14:33:39;;;;;;;8.43;2.97;;;;;;;;;;4879369;29;20045;-64
2022/10/27 14:36:11;;;;;;;6.57;2.38;;;;;;;;;;4880006;29;20045;-63
2022/10/27 14:38:41;;;;;;;5.75;2.45;;;;;;;;;;4879911;29;20051;-63
2022/10/27 14:41:15;;;;;;;10.73;2.60;;;;;;;;;;4879726;29;20172;-65
2022/10/27 14:43:47;;;;;;;5.07;2.58;;;;;;;;;;4879392;29;20531;-65
2022/10/27 14:46:18;;;;;;;8.18;3.08;;;;;;;;;;4879631;29;20056;-64
2022/10/27 14:48:51;;;;;;;7.13;1.90;;;;;;;;;;4880247;29;20045;-64
2022/10/27 14:51:17;;;;;;;5.72;2.20;;;;;;;;;;4879990;29;20037;-63
2022/10/27 14:53:47;;;;;;;10.18;2.47;;;;;;;;;;4879389;29;20391;-63
2022/10/27 14:56:15;;;;;;;6.22;2.50;;;;;;;;;;4879529;29;20045;-63